createdAt,value
2022-12-28T00:01:42.997Z,12.50
2022-12-28T00:04:15.004Z,11.18
2022-12-28T00:06:46.446Z,12.85
2022-12-28T00:09:17.858Z,14.00
2022-12-28T00:11:49.442Z,12.10
2022-12-28T00:14:20.869Z,12.07
2022-12-28T00:16:52.324Z,11.18
2022-12-28T00:19:23.772Z,12.20
2022-12-28T00:21:55.182Z,12.70
2022-12-28T00:24:26.583Z,11.45
2022-12-28T00:26:58.055Z,12.27
2022-12-28T00:29:29.509Z,10.30
2022-12-28T00:32:01.017Z,10.23
2022-12-28T00:34:32.482Z,10.90
2022-12-28T00:37:11.615Z,13.52
2022-12-28T00:39:44.057Z,10.88
2022-12-28T00:42:15.566Z,10.27
2022-12-28T00:44:46.979Z,10.85
2022-12-28T00:47:18.396Z,11.60
2022-12-28T00:49:49.835Z,14.15
2022-12-28T00:52:21.294Z,11.15
2022-12-28T00:54:52.695Z,12.07
2022-12-28T00:57:24.115Z,12.52
2022-12-28T00:59:55.545Z,11.43
2022-12-28T01:02:26.955Z,10.75
2022-12-28T01:04:58.391Z,11.37
2022-12-28T01:07:29.878Z,12.48
2022-12-28T01:10:01.347Z,10.20
2022-12-28T01:12:37.951Z,12.48
2022-12-28T01:15:12.388Z,10.82
2022-12-28T01:17:43.827Z,10.23
2022-12-28T01:20:15.294Z,10.52
2022-12-28T01:22:46.762Z,11.20
2022-12-28T01:25:18.222Z,10.85
2022-12-28T01:27:49.698Z,10.02
2022-12-28T01:30:21.157Z,9.85
2022-12-28T01:32:52.553Z,9.93
2022-12-28T01:35:24.002Z,9.35
2022-12-28T01:37:57.081Z,9.75
2022-12-28T01:40:28.513Z,10.57
2022-12-28T01:42:59.939Z,13.73
2022-12-28T01:45:31.440Z,9.80
2022-12-28T01:48:02.972Z,12.80
2022-12-28T01:50:34.446Z,10.55
2022-12-28T01:53:05.913Z,11.77
2022-12-28T01:55:41.380Z,8.37
2022-12-28T01:58:23.055Z,11.02
2022-12-28T02:00:54.738Z,9.07
2022-12-28T02:03:29.542Z,9.60
2022-12-28T02:06:05.511Z,9.32
2022-12-28T02:08:50.446Z,8.90
2022-12-28T02:11:21.930Z,10.35
2022-12-28T02:13:54.263Z,9.17
2022-12-28T02:16:25.783Z,10.60
2022-12-28T02:18:57.465Z,9.65
2022-12-28T02:21:42.730Z,8.32
2022-12-28T02:24:38.409Z,8.63
2022-12-28T02:27:19.073Z,9.85
2022-12-28T02:30:06.084Z,9.35
2022-12-28T02:32:40.217Z,8.55
2022-12-28T02:35:20.644Z,8.35
2022-12-28T02:37:59.951Z,9.35
2022-12-28T02:41:12.553Z,8.10
2022-12-28T02:43:44.867Z,8.95
2022-12-28T02:46:21.528Z,7.38
2022-12-28T02:48:53.016Z,9.60
2022-12-28T02:51:54.858Z,9.20
2022-12-28T02:54:35.383Z,8.90
2022-12-28T02:57:16.031Z,8.30
2022-12-28T02:59:59.512Z,7.43
2022-12-28T03:03:09.488Z,8.00
2022-12-28T03:05:50.173Z,8.85
2022-12-28T03:08:37.001Z,8.65
2022-12-28T03:11:11.771Z,8.95
2022-12-28T03:14:02.854Z,5.28
2022-12-28T03:16:38.349Z,7.28
2022-12-28T03:19:11.051Z,8.10
2022-12-28T03:21:42.807Z,7.32
2022-12-28T03:24:18.310Z,9.60
2022-12-28T03:26:51.710Z,6.60
2022-12-28T03:29:26.097Z,7.05
2022-12-28T03:31:57.579Z,9.88
2022-12-28T03:34:29.132Z,8.98
2022-12-28T03:37:24.919Z,9.88
2022-12-28T03:40:02.607Z,7.07
2022-12-28T03:42:43.878Z,8.30
2022-12-28T03:45:46.546Z,8.77
2022-12-28T03:48:19.321Z,5.63
2022-12-28T03:50:53.230Z,6.22
2022-12-28T03:53:30.368Z,8.30
2022-12-28T03:56:06.765Z,5.78
2022-12-28T03:58:38.220Z,9.25
2022-12-28T04:01:10.532Z,6.85
2022-12-28T04:03:42.383Z,7.55
2022-12-28T04:06:15.560Z,6.13
2022-12-28T04:08:47.602Z,6.50
2022-12-28T04:11:19.072Z,5.73
2022-12-28T04:13:50.496Z,8.23
2022-12-28T04:16:22.132Z,7.53
2022-12-28T04:18:53.571Z,5.20
2022-12-28T04:21:25.083Z,7.00
2022-12-28T04:23:56.543Z,6.20
2022-12-28T04:26:28.003Z,10.43
2022-12-28T04:28:59.457Z,5.45
2022-12-28T04:31:31.354Z,4.95
2022-12-28T04:34:02.843Z,8.88
2022-12-28T04:36:34.302Z,7.20
2022-12-28T04:39:05.850Z,4.63
2022-12-28T04:41:37.293Z,8.40
2022-12-28T04:44:08.981Z,4.65
2022-12-28T04:46:40.469Z,5.53
2022-12-28T04:49:11.916Z,6.68
2022-12-28T04:51:43.300Z,6.78
2022-12-28T04:54:14.850Z,5.55
2022-12-28T04:56:46.306Z,8.57
2022-12-28T04:59:17.728Z,5.82
2022-12-28T05:01:49.240Z,5.25
2022-12-28T05:04:20.695Z,5.63
2022-12-28T05:06:52.154Z,5.68
2022-12-28T05:09:23.957Z,6.55
2022-12-28T05:11:55.431Z,4.85
2022-12-28T05:14:27.703Z,5.10
2022-12-28T05:17:01.315Z,4.10
2022-12-28T05:19:32.729Z,6.00
2022-12-28T05:22:04.239Z,5.82
2022-12-28T05:24:35.671Z,4.50
2022-12-28T05:27:07.104Z,6.68
2022-12-28T05:29:38.527Z,6.43
2022-12-28T05:32:09.950Z,4.70
2022-12-28T05:34:41.428Z,4.32
2022-12-28T05:37:17.011Z,4.70
2022-12-28T05:39:53.152Z,6.03
2022-12-28T05:42:24.560Z,8.18
2022-12-28T05:44:56.009Z,7.07
2022-12-28T05:47:27.668Z,5.43
2022-12-28T05:49:59.080Z,5.07
2022-12-28T05:52:30.515Z,5.07
2022-12-28T05:55:02.486Z,8.15
2022-12-28T05:57:33.996Z,5.22
2022-12-28T06:00:06.315Z,4.63
2022-12-28T06:02:37.859Z,6.07
2022-12-28T06:05:09.579Z,7.47
2022-12-28T06:07:41.040Z,5.75
2022-12-28T06:10:12.497Z,5.57
2022-12-28T06:12:45.018Z,5.28
2022-12-28T06:15:16.533Z,6.85
2022-12-28T06:17:48.011Z,4.93
2022-12-28T06:20:19.484Z,4.70
2022-12-28T06:22:50.949Z,6.18
2022-12-28T06:25:22.400Z,5.35
2022-12-28T06:27:53.862Z,4.85
2022-12-28T06:30:25.266Z,3.75
2022-12-28T06:32:57.395Z,7.70
2022-12-28T06:35:28.845Z,6.17
2022-12-28T06:38:00.427Z,5.00
2022-12-28T06:41:02.478Z,7.23
2022-12-28T06:43:23.262Z,9.15
2022-12-28T06:45:56.249Z,6.10
2022-12-28T06:48:29.047Z,5.78
2022-12-28T06:51:01.722Z,6.90
2022-12-28T06:53:35.999Z,7.22
2022-12-28T06:56:11.484Z,5.90
2022-12-28T06:58:44.297Z,6.00
2022-12-28T07:01:19.049Z,6.45
2022-12-28T07:03:54.411Z,5.35
2022-12-28T07:06:28.128Z,4.72
2022-12-28T07:09:01.689Z,5.80
2022-12-28T07:11:33.411Z,5.72
2022-12-28T07:14:04.914Z,6.30
2022-12-28T07:19:06.578Z,4.73
2022-12-28T07:21:39.521Z,6.68
2022-12-28T07:24:11.023Z,6.68
2022-12-28T07:26:42.508Z,8.80
2022-12-28T07:29:14.265Z,5.35
2022-12-28T07:31:46.086Z,4.18
2022-12-28T07:34:17.532Z,6.20
2022-12-28T07:36:49.010Z,6.70
2022-12-28T07:39:20.414Z,5.28
2022-12-28T07:41:51.871Z,6.13
2022-12-28T07:44:27.922Z,7.55
2022-12-28T07:47:00.933Z,7.75
2022-12-28T07:49:32.323Z,6.10
2022-12-28T07:52:03.933Z,7.27
2022-12-28T07:54:35.391Z,6.70
2022-12-28T07:57:06.874Z,7.30
2022-12-28T07:59:38.337Z,5.55
2022-12-28T08:02:09.893Z,6.25
2022-12-28T08:04:41.405Z,6.47
2022-12-28T08:07:12.825Z,6.97
2022-12-28T08:09:44.246Z,7.82
2022-12-28T08:12:15.750Z,7.35
2022-12-28T08:14:47.235Z,4.72
2022-12-28T08:17:21.160Z,4.85
2022-12-28T08:19:52.903Z,6.03
2022-12-28T08:22:24.351Z,6.30
2022-12-28T08:24:55.776Z,6.35
2022-12-28T08:27:27.236Z,5.20
2022-12-28T08:29:58.664Z,5.43
2022-12-28T08:32:30.078Z,5.93
2022-12-28T08:35:01.489Z,5.33
2022-12-28T08:37:32.939Z,5.25
2022-12-28T08:40:04.940Z,3.58
2022-12-28T08:42:36.362Z,3.45
2022-12-28T08:45:08.298Z,3.20
2022-12-28T08:47:39.749Z,3.50
2022-12-28T08:50:12.295Z,4.15
2022-12-28T08:52:44.191Z,3.05
2022-12-28T08:55:15.755Z,4.72
2022-12-28T08:57:47.138Z,3.08
2022-12-28T09:00:18.794Z,4.38
2022-12-28T09:02:50.242Z,4.57
2022-12-28T09:05:21.738Z,3.25
2022-12-28T09:07:57.817Z,5.10
2022-12-28T09:10:31.339Z,4.40
2022-12-28T09:13:02.765Z,2.95
2022-12-28T09:15:34.207Z,3.77
2022-12-28T09:18:05.679Z,4.60
2022-12-28T09:20:37.106Z,3.17
2022-12-28T09:23:08.546Z,4.63
2022-12-28T09:25:40.718Z,5.07
2022-12-28T09:28:12.136Z,4.65
2022-12-28T09:30:43.580Z,4.60
2022-12-28T09:33:15.086Z,4.35
2022-12-28T09:35:46.582Z,4.67
2022-12-28T09:38:18.045Z,3.90
2022-12-28T09:40:49.510Z,5.90
2022-12-28T09:43:21.287Z,6.05
2022-12-28T09:45:54.744Z,5.17
2022-12-28T09:48:26.146Z,4.97
2022-12-28T09:50:57.626Z,5.20
2022-12-28T09:53:35.499Z,5.07
2022-12-28T09:56:23.974Z,5.20
2022-12-28T09:58:56.358Z,5.88
2022-12-28T10:01:27.960Z,6.90
2022-12-28T10:04:01.534Z,7.97
2022-12-28T10:06:34.083Z,5.33
2022-12-28T10:09:16.210Z,6.78
2022-12-28T10:11:47.647Z,6.65
2022-12-28T10:14:20.611Z,6.50
2022-12-28T10:16:52.125Z,5.57
2022-12-28T10:19:26.485Z,5.25
2022-12-28T10:22:18.468Z,7.07
2022-12-28T10:24:50.286Z,3.55
2022-12-28T10:27:31.179Z,6.22
2022-12-28T10:30:02.693Z,7.63
2022-12-28T10:32:50.725Z,6.57
2022-12-28T10:35:23.454Z,6.13
2022-12-28T10:38:02.935Z,4.75
2022-12-28T10:40:38.233Z,6.93
2022-12-28T10:43:19.039Z,7.05
2022-12-28T10:45:51.599Z,5.30
2022-12-28T10:48:30.048Z,5.20
2022-12-28T10:51:12.482Z,5.90
2022-12-28T10:53:43.918Z,5.07
2022-12-28T10:56:20.924Z,6.95
2022-12-28T10:58:55.128Z,6.38
2022-12-28T11:01:29.283Z,5.95
2022-12-28T11:04:22.338Z,6.83
2022-12-28T11:06:55.201Z,4.57
2022-12-28T11:09:31.759Z,7.68
2022-12-28T11:12:18.273Z,6.13
2022-12-28T11:14:50.422Z,5.30
2022-12-28T11:17:24.134Z,6.15
2022-12-28T11:20:01.906Z,5.10
2022-12-28T11:22:33.940Z,6.28
2022-12-28T11:25:06.246Z,6.35
2022-12-28T11:27:37.727Z,5.68
2022-12-28T11:30:19.846Z,4.97
2022-12-28T11:33:00.513Z,6.88
2022-12-28T11:35:36.422Z,5.55
2022-12-28T11:38:31.591Z,5.80
2022-12-28T11:41:03.052Z,7.10
2022-12-28T11:43:39.542Z,5.18
2022-12-28T11:46:22.970Z,7.30
2022-12-28T11:48:54.370Z,5.80
2022-12-28T11:51:33.804Z,7.43
2022-12-28T11:54:51.171Z,5.82
2022-12-28T11:57:43.408Z,7.83
2022-12-28T12:00:22.171Z,6.47
2022-12-28T12:02:58.140Z,7.38
2022-12-28T12:05:35.419Z,8.63
2022-12-28T12:08:12.943Z,6.10
2022-12-28T12:11:08.239Z,6.75
2022-12-28T12:13:43.563Z,9.27
2022-12-28T12:16:22.903Z,6.05
2022-12-28T12:18:57.554Z,7.82
2022-12-28T12:21:32.819Z,9.52
2022-12-28T12:24:17.512Z,10.45
2022-12-28T12:26:53.433Z,8.35
2022-12-28T12:29:37.060Z,11.47
2022-12-28T12:32:52.859Z,8.73
2022-12-28T12:35:29.110Z,9.60
2022-12-28T12:38:34.797Z,12.00
2022-12-28T12:41:31.075Z,8.80
2022-12-28T12:44:44.240Z,9.00
2022-12-28T12:47:37.252Z,10.00
2022-12-28T12:50:20.444Z,10.65
2022-12-28T12:53:04.250Z,11.68
2022-12-28T12:56:13.299Z,12.40
2022-12-28T12:59:17.658Z,12.30
2022-12-28T13:02:11.338Z,11.52
2022-12-28T13:04:43.867Z,11.13
2022-12-28T13:07:23.464Z,14.20
2022-12-28T13:09:59.314Z,11.48
2022-12-28T13:12:30.807Z,12.05
2022-12-28T13:15:10.672Z,10.85
2022-12-28T13:18:42.830Z,8.13
2022-12-28T13:20:55.873Z,11.13
2022-12-28T13:23:30.167Z,9.75
2022-12-28T13:26:02.510Z,11.52
2022-12-28T13:28:36.973Z,11.30
2022-12-28T13:31:16.004Z,14.63
2022-12-28T13:33:59.966Z,9.15
2022-12-28T13:36:31.495Z,9.60
2022-12-28T13:39:12.870Z,8.82
2022-12-28T13:41:52.915Z,11.93
2022-12-28T13:44:52.881Z,11.13
2022-12-28T13:47:32.377Z,11.13
2022-12-28T13:50:06.630Z,8.75
2022-12-28T13:53:00.887Z,8.57
2022-12-28T13:55:41.518Z,10.73
2022-12-28T13:58:19.459Z,9.38
2022-12-28T14:00:53.406Z,11.82
2022-12-28T14:03:25.267Z,13.50
2022-12-28T14:05:59.138Z,11.73
2022-12-28T14:08:35.057Z,14.18
2022-12-28T14:11:07.058Z,13.67
2022-12-28T14:13:39.589Z,9.60
2022-12-28T14:16:11.563Z,9.98
2022-12-28T14:18:44.228Z,11.90
2022-12-28T14:21:15.691Z,8.83
2022-12-28T14:23:47.124Z,11.50
2022-12-28T14:26:21.342Z,12.68
2022-12-28T14:28:54.201Z,14.02
2022-12-28T14:31:29.745Z,9.13
2022-12-28T14:34:04.241Z,8.95
2022-12-28T14:36:47.109Z,10.20
2022-12-28T14:39:29.617Z,10.50
2022-12-28T14:42:03.329Z,9.32
2022-12-28T14:44:40.980Z,10.65
2022-12-28T14:47:34.433Z,9.07
2022-12-28T14:50:32.383Z,10.10
2022-12-28T14:53:13.295Z,9.82
2022-12-28T14:56:13.528Z,13.02
2022-12-28T14:58:50.453Z,9.00
2022-12-28T15:01:23.659Z,8.80
2022-12-28T15:04:01.859Z,9.05
2022-12-28T15:06:33.374Z,9.13
2022-12-28T15:09:05.014Z,8.70
2022-12-28T15:11:36.463Z,9.13
2022-12-28T15:14:07.851Z,11.57
2022-12-28T15:16:39.301Z,8.18
2022-12-28T15:19:10.749Z,11.45
2022-12-28T15:21:42.319Z,9.07
2022-12-28T15:24:15.826Z,8.57
2022-12-28T15:26:49.443Z,8.43
2022-12-28T15:29:39.523Z,9.68
2022-12-28T15:32:12.526Z,9.00
2022-12-28T15:34:43.993Z,9.00
2022-12-28T15:37:15.415Z,6.70
2022-12-28T15:39:48.288Z,9.48
2022-12-28T15:42:19.719Z,6.40
2022-12-28T15:44:51.208Z,9.63
2022-12-28T15:47:22.655Z,8.52
2022-12-28T15:49:54.148Z,6.72
2022-12-28T15:52:25.558Z,10.90
2022-12-28T15:54:57.642Z,7.85
2022-12-28T15:57:29.692Z,8.00
2022-12-28T16:00:01.269Z,8.05
2022-12-28T16:02:32.911Z,7.50
2022-12-28T16:05:04.797Z,7.93
2022-12-28T16:07:36.207Z,7.43
2022-12-28T16:10:07.996Z,8.60
2022-12-28T16:12:39.588Z,9.90
2022-12-28T16:15:11.476Z,10.03
2022-12-28T16:17:52.931Z,6.68
2022-12-28T16:20:29.675Z,7.35
2022-12-28T16:23:01.106Z,8.17
2022-12-28T16:25:32.532Z,6.43
2022-12-28T16:28:04.148Z,8.07
2022-12-28T16:30:48.359Z,8.40
2022-12-28T16:33:19.925Z,9.07
2022-12-28T16:35:56.027Z,6.33
2022-12-28T16:38:30.889Z,8.23
2022-12-28T16:41:02.308Z,6.77
2022-12-28T16:43:33.716Z,8.32
2022-12-28T16:46:07.059Z,6.35
2022-12-28T16:48:38.910Z,5.60
2022-12-28T16:51:11.594Z,5.65
2022-12-28T16:53:43.037Z,6.50
2022-12-28T16:56:14.543Z,5.95
2022-12-28T16:58:49.108Z,6.68
2022-12-28T17:01:21.022Z,7.35
2022-12-28T17:03:53.850Z,7.35
2022-12-28T17:06:26.006Z,7.57
2022-12-28T17:08:57.488Z,6.88
2022-12-28T17:11:28.959Z,5.22
2022-12-28T17:14:06.160Z,6.72
2022-12-28T17:16:38.503Z,9.07
2022-12-28T17:19:09.969Z,7.40
2022-12-28T17:21:41.416Z,5.90
2022-12-28T17:24:12.867Z,4.83
2022-12-28T17:26:44.299Z,4.80
2022-12-28T17:29:15.768Z,7.40
2022-12-28T17:31:48.671Z,7.60
2022-12-28T17:34:20.330Z,7.70
2022-12-28T17:36:51.849Z,6.30
2022-12-28T17:39:23.373Z,7.05
2022-12-28T17:41:54.841Z,5.63
2022-12-28T17:44:26.305Z,6.72
2022-12-28T17:46:57.745Z,5.03
2022-12-28T17:49:29.165Z,6.13
2022-12-28T17:52:00.611Z,7.45
2022-12-28T17:54:32.575Z,9.38
2022-12-28T17:57:04.075Z,5.22
2022-12-28T17:59:35.549Z,7.95
2022-12-28T18:02:07.559Z,5.95
2022-12-28T18:04:40.278Z,6.80
2022-12-28T18:07:11.807Z,5.95
2022-12-28T18:09:43.242Z,6.05
2022-12-28T18:12:14.648Z,7.00
2022-12-28T18:14:46.137Z,5.63
2022-12-28T18:17:17.695Z,4.73
2022-12-28T18:19:49.933Z,6.25
2022-12-28T18:22:22.128Z,7.60
2022-12-28T18:24:53.623Z,6.05
2022-12-28T18:27:25.173Z,6.00
2022-12-28T18:29:56.702Z,6.20
2022-12-28T18:32:28.214Z,7.60
2022-12-28T18:34:59.681Z,8.73
2022-12-28T18:37:31.428Z,5.93
2022-12-28T18:40:02.989Z,6.83
2022-12-28T18:42:34.384Z,6.60
2022-12-28T18:45:06.432Z,7.32
2022-12-28T18:47:37.868Z,5.70
2022-12-28T18:50:09.782Z,7.05
2022-12-28T18:52:41.231Z,6.05
2022-12-28T18:55:14.630Z,6.10
2022-12-28T18:57:46.023Z,6.27
2022-12-28T19:00:21.364Z,4.93
2022-12-28T19:02:53.064Z,4.50
2022-12-28T19:05:24.647Z,4.72
2022-12-28T19:07:56.110Z,5.07
2022-12-28T19:10:27.556Z,5.65
2022-12-28T19:13:04.031Z,6.82
2022-12-28T19:15:35.488Z,6.15
2022-12-28T19:18:07.071Z,4.93
2022-12-28T19:20:38.711Z,5.13
2022-12-28T19:23:12.921Z,7.63
2022-12-28T19:25:44.332Z,4.87
2022-12-28T19:28:15.749Z,8.05
2022-12-28T19:30:47.184Z,5.68
2022-12-28T19:33:18.641Z,6.38
2022-12-28T19:35:50.059Z,6.05
2022-12-28T19:38:21.556Z,5.03
2022-12-28T19:40:54.866Z,5.50
2022-12-28T19:43:26.299Z,4.78
2022-12-28T19:46:07.886Z,4.63
2022-12-28T19:48:39.382Z,4.18
2022-12-28T19:51:11.357Z,7.40
2022-12-28T19:53:42.859Z,4.33
2022-12-28T19:56:16.342Z,5.80
2022-12-28T19:58:48.434Z,7.05
2022-12-28T20:01:22.741Z,5.13
2022-12-28T20:03:54.971Z,4.40
2022-12-28T20:06:28.742Z,4.30
2022-12-28T20:09:01.327Z,5.10
2022-12-28T20:11:32.850Z,5.72
2022-12-28T20:14:04.792Z,6.10
2022-12-28T20:16:36.345Z,4.55
2022-12-28T20:19:08.161Z,4.25
2022-12-28T20:21:40.283Z,4.50
2022-12-28T20:24:11.916Z,3.50
2022-12-28T20:26:43.348Z,4.80
2022-12-28T20:29:15.100Z,5.57
2022-12-28T20:31:46.566Z,3.55
2022-12-28T20:34:18.183Z,3.92
2022-12-28T20:36:49.618Z,3.95
2022-12-28T20:39:21.041Z,4.65
2022-12-28T20:41:52.449Z,3.75
2022-12-28T20:44:26.495Z,3.35
2022-12-28T20:46:59.543Z,4.68
2022-12-28T20:49:31.494Z,4.53
2022-12-28T20:52:03.005Z,4.25
2022-12-28T20:54:34.407Z,4.45
2022-12-28T20:57:05.883Z,3.70
2022-12-28T20:59:37.333Z,4.37
2022-12-28T21:02:10.488Z,3.17
2022-12-28T21:04:41.964Z,3.10
2022-12-28T21:07:13.364Z,3.63
2022-12-28T21:09:44.919Z,3.22
2022-12-28T21:12:16.619Z,3.15
2022-12-28T21:14:48.093Z,2.97
2022-12-28T21:17:19.715Z,3.22
2022-12-28T21:19:51.307Z,3.65
2022-12-28T21:22:22.755Z,3.80
2022-12-28T21:24:54.203Z,3.65
2022-12-28T21:27:25.671Z,2.70
2022-12-28T21:29:57.142Z,2.90
2022-12-28T21:32:28.605Z,5.80
2022-12-28T21:35:00.081Z,4.35
2022-12-28T21:37:31.610Z,2.65
2022-12-28T21:40:05.787Z,2.90
2022-12-28T21:42:37.322Z,2.85
2022-12-28T21:45:09.311Z,3.17
2022-12-28T21:47:40.781Z,3.20
2022-12-28T21:50:12.180Z,2.33
2022-12-28T21:52:43.621Z,2.70
2022-12-28T21:55:15.137Z,2.50
2022-12-28T21:57:51.334Z,3.00
2022-12-28T22:00:22.760Z,2.13
2022-12-28T22:02:54.346Z,2.83
2022-12-28T22:05:25.822Z,2.10
2022-12-28T22:07:57.310Z,2.13
2022-12-28T22:10:28.744Z,2.45
2022-12-28T22:13:00.153Z,2.70
2022-12-28T22:15:31.547Z,2.83
2022-12-28T22:18:06.048Z,3.20
2022-12-28T22:20:37.930Z,3.40
2022-12-28T22:23:09.396Z,3.55
2022-12-28T22:25:41.448Z,3.80
2022-12-28T22:28:13.028Z,4.25
2022-12-28T22:30:44.505Z,3.85
2022-12-28T22:33:15.924Z,4.05
2022-12-28T22:35:47.363Z,3.50
2022-12-28T22:38:18.750Z,3.60
2022-12-28T22:40:59.426Z,4.03
2022-12-28T22:43:30.832Z,3.60
2022-12-28T22:46:11.885Z,3.50
2022-12-28T22:48:43.594Z,3.90
2022-12-28T22:51:16.464Z,3.28
2022-12-28T22:53:48.139Z,3.10
2022-12-28T22:56:19.557Z,4.65
2022-12-28T22:58:51.077Z,3.10
2022-12-28T23:01:22.635Z,4.23
2022-12-28T23:03:54.143Z,3.13
2022-12-28T23:06:25.592Z,4.17
2022-12-28T23:08:57.108Z,4.40
2022-12-28T23:11:28.564Z,2.97
2022-12-28T23:14:01.235Z,3.55
2022-12-28T23:16:32.748Z,3.03
2022-12-28T23:19:04.234Z,3.75
2022-12-28T23:21:35.668Z,3.70
2022-12-28T23:24:11.461Z,3.00
2022-12-28T23:26:42.899Z,3.05
2022-12-28T23:29:14.283Z,2.70
2022-12-28T23:31:45.678Z,2.80
2022-12-28T23:34:17.117Z,3.00
2022-12-28T23:36:48.567Z,3.53
2022-12-28T23:39:20.120Z,3.03
2022-12-28T23:41:51.959Z,2.27
2022-12-28T23:44:25.466Z,2.35
2022-12-28T23:46:59.241Z,3.40
2022-12-28T23:49:30.858Z,2.13
2022-12-28T23:52:02.304Z,2.30
2022-12-28T23:54:33.768Z,3.13
2022-12-28T23:57:05.632Z,2.65
2022-12-28T23:59:37.082Z,2.45
